Time;durP1;ratioP1;P1;durP2;ratioP2;P2;SDS_P1;SDS_P2;PMS_P1;PMS_P2;Temp;Humidity;BMP_temperature;BMP_pressure;BME280_temperature;BME280_humidity;BME280_pressure;Samples;Min_cycle;Max_cycle;Signal;HPM_P1;HPM_P2
2023/10/09 00:00:50;;;;;;;15.80;4.93;;;;;;;;;;4987605;28;20586;-66
2023/10/09 00:03:17;;;;;;;14.68;5.72;;;;;;;;;;4994602;28;20108;-65
2023/10/09 00:08:16;;;;;;;11.48;4.55;;;;;;;;;;4994932;28;20064;-66
2023/10/09 00:10:53;;;;;;;14.73;4.82;;;;;;;;;;4994049;28;20449;-66
2023/10/09 00:13:20;;;;;;;16.33;4.85;;;;;;;;;;4994546;28;20466;-65
2023/10/09 00:15:52;;;;;;;10.80;4.90;;;;;;;;;;4994477;28;20018;-66
2023/10/09 00:18:22;;;;;;;;;;;;;;;;;;4994611;28;20033;-66
2023/10/09 00:20:54;;;;;;;13.40;3.95;;;;;;;;;;4994302;28;19917;-66
2023/10/09 00:23:19;;;;;;;16.85;5.15;;;;;;;;;;4994251;28;20030;-66
2023/10/09 00:26:09;;;;;;;17.37;5.10;;;;;;;;;;4994074;28;20034;-66
2023/10/09 00:28:38;;;;;;;16.02;5.70;;;;;;;;;;4989017;28;20366;-65
2023/10/09 00:31:06;;;;;;;13.68;5.30;;;;;;;;;;4994147;28;20033;-65
2023/10/09 00:33:32;;;;;;;12.45;5.38;;;;;;;;;;4993443;28;20029;-66
2023/10/09 00:36:06;;;;;;;13.57;4.05;;;;;;;;;;4994314;28;20019;-66
2023/10/09 00:38:34;;;;;;;12.43;3.92;;;;;;;;;;4986895;28;20033;-66
2023/10/09 00:41:04;;;;;;;9.55;3.97;;;;;;;;;;4993915;28;20030;-65
2023/10/09 00:43:30;;;;;;;9.05;3.60;;;;;;;;;;4993666;28;20037;-65
2023/10/09 00:46:00;;;;;;;9.32;3.70;;;;;;;;;;4993996;28;20029;-65
2023/10/09 00:48:31;;;;;;;12.90;4.20;;;;;;;;;;4993842;28;20023;-66
2023/10/09 00:50:59;;;;;;;13.27;4.15;;;;;;;;;;4994112;28;20093;-66
2023/10/09 00:53:31;;;;;;;16.65;4.38;;;;;;;;;;4993968;28;20030;-66
2023/10/09 00:55:57;;;;;;;14.35;4.35;;;;;;;;;;4986403;28;20022;-65
2023/10/09 00:58:30;;;;;;;7.65;3.30;;;;;;;;;;4992819;28;20517;-65
2023/10/09 01:00:56;;;;;;;8.55;3.63;;;;;;;;;;4993956;28;20030;-66
2023/10/09 01:03:22;;;;;;;15.27;4.70;;;;;;;;;;4993609;28;20115;-65
2023/10/09 01:06:03;;;;;;;10.82;3.50;;;;;;;;;;4993485;28;20018;-65
2023/10/09 01:11:18;;;;;;;8.63;3.80;;;;;;;;;;4993439;28;20042;-66
2023/10/09 01:16:17;;;;;;;12.07;4.07;;;;;;;;;;4993909;28;20030;-65
2023/10/09 01:18:46;;;;;;;8.00;2.83;;;;;;;;;;4993438;28;20026;-66
2023/10/09 01:21:13;;;;;;;8.90;3.70;;;;;;;;;;4993488;28;20035;-65
2023/10/09 01:23:58;;;;;;;9.15;3.90;;;;;;;;;;4993705;28;20088;-65
2023/10/09 01:26:24;;;;;;;11.05;4.25;;;;;;;;;;4993164;28;20406;-66
2023/10/09 01:28:49;;;;;;;11.98;4.43;;;;;;;;;;4993298;28;20019;-65
2023/10/09 01:31:14;;;;;;;12.30;4.10;;;;;;;;;;4993458;28;20018;-70
2023/10/09 01:33:41;;;;;;;12.57;3.80;;;;;;;;;;4993175;28;20259;-69
2023/10/09 01:36:09;;;;;;;9.43;3.67;;;;;;;;;;4993322;28;20034;-70
2023/10/09 01:38:40;;;;;;;9.80;3.90;;;;;;;;;;4993368;28;20378;-69
2023/10/09 01:41:15;;;;;;;9.25;3.90;;;;;;;;;;4993435;28;20027;-70
2023/10/09 01:43:45;;;;;;;11.52;4.13;;;;;;;;;;4990692;28;20124;-69
2023/10/09 01:46:11;;;;;;;11.40;4.22;;;;;;;;;;4997488;28;20023;-70
2023/10/09 01:48:39;;;;;;;14.77;4.07;;;;;;;;;;4997176;28;20045;-70
2023/10/09 01:51:05;;;;;;;14.25;4.60;;;;;;;;;;4996892;28;20026;-70
2023/10/09 01:53:30;;;;;;;14.23;3.72;;;;;;;;;;4997285;28;20398;-70
2023/10/09 01:55:56;;;;;;;13.90;4.80;;;;;;;;;;4996958;28;20455;-69
2023/10/09 02:00:54;;;;;;;11.67;4.63;;;;;;;;;;4997285;28;20033;-70
2023/10/09 02:03:24;;;;;;;16.17;4.82;;;;;;;;;;4996837;28;20112;-69
2023/10/09 02:06:24;;;;;;;22.95;5.45;;;;;;;;;;4997074;28;20058;-69
2023/10/09 02:08:37;;;;;;;14.40;4.82;;;;;;;;;;4996459;28;20018;-70
2023/10/09 02:11:02;;;;;;;17.17;4.73;;;;;;;;;;4996627;28;20046;-70
2023/10/09 02:13:34;;;;;;;14.00;4.57;;;;;;;;;;4996696;28;20031;-69
2023/10/09 02:16:13;;;;;;;17.23;4.97;;;;;;;;;;4996909;28;20370;-70
2023/10/09 02:18:53;;;;;;;16.02;5.07;;;;;;;;;;4996435;28;20030;-70
2023/10/09 02:21:32;;;;;;;12.82;5.43;;;;;;;;;;4996769;28;20120;-70
2023/10/09 02:23:57;;;;;;;19.00;5.95;;;;;;;;;;4996525;28;20478;-70
2023/10/09 02:26:27;;;;;;;14.77;5.87;;;;;;;;;;4996642;28;20025;-70
2023/10/09 02:29:42;;;;;;;24.48;5.20;;;;;;;;;;4996174;28;20267;-70
2023/10/09 02:31:44;;;;;;;16.58;5.85;;;;;;;;;;4989145;28;20511;-70
2023/10/09 02:34:10;;;;;;;14.98;5.13;;;;;;;;;;4996380;28;20026;-70
2023/10/09 02:36:41;;;;;;;16.52;5.25;;;;;;;;;;4996487;28;20054;-70
2023/10/09 02:39:12;;;;;;;16.88;6.30;;;;;;;;;;4996337;28;20521;-70
2023/10/09 02:41:37;;;;;;;17.15;5.45;;;;;;;;;;4996300;28;20015;-66
2023/10/09 02:44:10;;;;;;;21.88;5.68;;;;;;;;;;4996346;28;20426;-66
2023/10/09 02:46:36;;;;;;;22.63;6.00;;;;;;;;;;4996186;28;20030;-66
2023/10/09 02:49:09;;;;;;;24.20;5.93;;;;;;;;;;4996081;28;20093;-65
2023/10/09 02:51:41;;;;;;;20.77;6.18;;;;;;;;;;4996014;28;20660;-66
2023/10/09 02:54:18;;;;;;;27.58;6.07;;;;;;;;;;4994309;28;20064;-66
2023/10/09 02:57:06;;;;;;;21.90;7.00;;;;;;;;;;4995091;28;20524;-65
2023/10/09 02:59:32;;;;;;;29.02;5.93;;;;;;;;;;4995662;28;20108;-66
2023/10/09 03:01:59;;;;;;;22.80;6.32;;;;;;;;;;4995812;28;20110;-65
2023/10/09 03:04:29;;;;;;;27.42;7.30;;;;;;;;;;4995365;28;20022;-66
2023/10/09 03:06:57;;;;;;;34.53;7.18;;;;;;;;;;4996026;28;20508;-65
2023/10/09 03:09:28;;;;;;;26.48;7.18;;;;;;;;;;4995457;28;20038;-66
2023/10/09 03:11:55;;;;;;;24.45;6.40;;;;;;;;;;4988342;28;20022;-66
2023/10/09 03:14:20;;;;;;;27.73;6.20;;;;;;;;;;4995620;28;20034;-66
2023/10/09 03:16:48;;;;;;;20.83;6.32;;;;;;;;;;4995517;28;20041;-66
2023/10/09 03:19:13;;;;;;;18.10;6.70;;;;;;;;;;4995476;28;20022;-66
2023/10/09 03:21:38;;;;;;;24.80;6.63;;;;;;;;;;4995336;28;20493;-65
2023/10/09 03:24:05;;;;;;;27.17;7.15;;;;;;;;;;4995039;28;20034;-65
2023/10/09 03:26:31;;;;;;;15.02;6.18;;;;;;;;;;4995572;28;20033;-65
2023/10/09 03:28:56;;;;;;;19.60;6.82;;;;;;;;;;4995049;28;20466;-65
2023/10/09 03:31:22;;;;;;;21.97;6.23;;;;;;;;;;4995360;28;20045;-66
2023/10/09 03:33:47;;;;;;;21.00;6.43;;;;;;;;;;4995429;28;20268;-65
2023/10/09 03:36:12;;;;;;;18.43;6.23;;;;;;;;;;4995066;28;20026;-65
2023/10/09 03:38:38;;;;;;;18.47;6.07;;;;;;;;;;4995361;28;20105;-66
2023/10/09 03:41:06;;;;;;;22.48;6.85;;;;;;;;;;4994985;28;20030;-65
2023/10/09 03:43:40;;;;;;;28.38;6.93;;;;;;;;;;4994969;28;20034;-65
2023/10/09 03:46:13;;;;;;;26.52;6.72;;;;;;;;;;4994965;28;20019;-65
2023/10/09 03:48:38;;;;;;;28.15;6.15;;;;;;;;;;4994830;28;20030;-65
2023/10/09 03:51:12;;;;;;;26.90;6.83;;;;;;;;;;4994876;28;20066;-65
2023/10/09 03:53:38;;;;;;;19.08;6.65;;;;;;;;;;4994890;28;20030;-65
2023/10/09 03:56:11;;;;;;;27.58;7.43;;;;;;;;;;4994739;28;20027;-65
2023/10/09 03:58:37;;;;;;;28.88;8.15;;;;;;;;;;4994547;28;20084;-66
2023/10/09 04:01:07;;;;;;;34.00;7.55;;;;;;;;;;4992987;28;20034;-66
2023/10/09 04:03:35;;;;;;;34.85;7.78;;;;;;;;;;4994392;28;20033;-66
2023/10/09 04:06:00;;;;;;;37.88;7.30;;;;;;;;;;4994540;28;20026;-66
2023/10/09 04:08:29;;;;;;;27.27;7.32;;;;;;;;;;4994001;28;20130;-65
2023/10/09 04:11:01;;;;;;;26.13;7.38;;;;;;;;;;4993976;28;20045;-66
2023/10/09 04:13:33;;;;;;;26.77;7.53;;;;;;;;;;4995113;28;20494;-66
2023/10/09 04:15:59;;;;;;;30.05;8.20;;;;;;;;;;4995072;28;20054;-66
2023/10/09 04:18:32;;;;;;;26.60;7.22;;;;;;;;;;4994400;28;20160;-66
2023/10/09 04:23:59;;;;;;;31.40;7.40;;;;;;;;;;4994622;28;20033;-66
2023/10/09 04:26:25;;;;;;;25.13;6.60;;;;;;;;;;4994696;28;20025;-65
2023/10/09 04:28:52;;;;;;;23.92;7.30;;;;;;;;;;4994760;28;20430;-66
2023/10/09 04:31:22;;;;;;;28.05;7.68;;;;;;;;;;4994603;28;20018;-66
2023/10/09 04:34:21;;;;;;;30.13;6.80;;;;;;;;;;4994658;28;20486;-65
2023/10/09 04:36:46;;;;;;;43.65;8.60;;;;;;;;;;4994175;28;20033;-65
2023/10/09 04:44:22;;;;;;;32.10;7.80;;;;;;;;;;4994559;28;20026;-65
2023/10/09 04:50:36;;;;;;;32.17;7.70;;;;;;;;;;4994514;28;20034;-66
2023/10/09 04:57:38;;;;;;;27.73;6.18;;;;;;;;;;4994379;28;20026;-65
2023/10/09 05:00:06;;;;;;;33.72;7.60;;;;;;;;;;4994328;28;20085;-65
2023/10/09 05:02:36;;;;;;;35.50;7.18;;;;;;;;;;4994401;28;20109;-69
2023/10/09 05:05:48;;;;;;;31.83;7.60;;;;;;;;;;4993894;28;20030;-69
2023/10/09 05:07:54;;;;;;;28.05;6.50;;;;;;;;;;4993389;28;20039;-70
2023/10/09 05:10:24;;;;;;;28.45;7.07;;;;;;;;;;4993818;28;20047;-69
2023/10/09 05:12:56;;;;;;;36.08;7.13;;;;;;;;;;4994096;28;20072;-70
2023/10/09 05:15:26;;;;;;;37.00;7.53;;;;;;;;;;4994222;28;20497;-69
2023/10/09 05:17:56;;;;;;;25.98;6.40;;;;;;;;;;4994173;28;20490;-70
2023/10/09 05:23:26;;;;;;;23.77;8.10;;;;;;;;;;4973341;28;20438;-69
2023/10/09 05:25:55;;;;;;;26.02;5.90;;;;;;;;;;4994112;28;20177;-70
2023/10/09 05:28:48;;;;;;;31.83;7.05;;;;;;;;;;4993935;28;20382;-70
2023/10/09 05:31:44;;;;;;;35.92;7.97;;;;;;;;;;4994055;28;20053;-70
2023/10/09 05:34:01;;;;;;;36.00;7.72;;;;;;;;;;4993651;28;20026;-69
2023/10/09 05:41:59;;;;;;;34.72;7.38;;;;;;;;;;4993648;28;20034;-69
2023/10/09 05:49:57;;;;;;;36.03;7.60;;;;;;;;;;4993987;28;20019;-69
2023/10/09 06:14:23;;;;;;;31.95;7.57;;;;;;;;;;4993679;28;20064;-70
2023/10/09 06:16:59;;;;;;;40.00;8.85;;;;;;;;;;4993077;28;20490;-69
2023/10/09 06:19:43;;;;;;;34.45;8.52;;;;;;;;;;4993641;28;20532;-69
2023/10/09 06:24:42;;;;;;;32.15;8.88;;;;;;;;;;4993293;28;20430;-69
2023/10/09 06:27:24;;;;;;;35.28;7.95;;;;;;;;;;4993568;28;20488;-70
2023/10/09 06:51:07;;;;;;;30.10;7.00;;;;;;;;;;4996737;28;20022;-69
2023/10/09 06:54:37;;;;;;;37.10;6.75;;;;;;;;;;4996584;28;20029;-70
2023/10/09 06:58:55;;;;;;;30.65;7.28;;;;;;;;;;4996505;28;20026;-70
2023/10/09 07:04:18;;;;;;;31.33;6.43;;;;;;;;;;4996363;28;20022;-69
2023/10/09 07:14:06;;;;;;;29.15;6.13;;;;;;;;;;4996297;28;20177;-69
2023/10/09 07:16:38;;;;;;;27.30;6.78;;;;;;;;;;4995919;28;20105;-69
2023/10/09 07:19:19;;;;;;;28.95;6.45;;;;;;;;;;4996196;28;20034;-70
2023/10/09 07:21:51;;;;;;;29.17;6.43;;;;;;;;;;4996230;28;20391;-69
2023/10/09 07:24:20;;;;;;;28.30;6.25;;;;;;;;;;4995710;28;20113;-69
2023/10/09 07:26:53;;;;;;;25.80;5.95;;;;;;;;;;4995987;28;20035;-70
2023/10/09 07:29:21;;;;;;;34.80;7.30;;;;;;;;;;4995716;28;20014;-70
2023/10/09 07:31:47;;;;;;;26.27;6.72;;;;;;;;;;4995947;28;20467;-70
2023/10/09 07:34:31;;;;;;;33.08;7.15;;;;;;;;;;4995599;28;20030;-69
2023/10/09 07:36:56;;;;;;;29.40;5.80;;;;;;;;;;4995841;28;20458;-70
2023/10/09 07:39:22;;;;;;;25.02;7.03;;;;;;;;;;4995671;28;20104;-70
2023/10/09 07:42:01;;;;;;;20.45;5.20;;;;;;;;;;4995255;28;20030;-70
2023/10/09 07:44:39;;;;;;;36.00;6.03;;;;;;;;;;4995550;28;20386;-69
2023/10/09 07:47:17;;;;;;;28.45;6.50;;;;;;;;;;4995632;28;20360;-69
2023/10/09 07:49:48;;;;;;;33.63;5.80;;;;;;;;;;4995607;28;20474;-69
2023/10/09 07:52:14;;;;;;;42.93;5.10;;;;;;;;;;4995247;28;20026;-70
2023/10/09 07:54:49;;;;;;;32.95;6.18;;;;;;;;;;4995266;28;20033;-70
2023/10/09 07:57:17;;;;;;;28.85;5.60;;;;;;;;;;4995398;28;20018;-69
2023/10/09 07:59:54;;;;;;;24.15;5.10;;;;;;;;;;4995115;28;20094;-70
2023/10/09 08:02:31;;;;;;;20.08;5.18;;;;;;;;;;4995366;28;20494;-70
2023/10/09 08:05:06;;;;;;;28.08;6.10;;;;;;;;;;4995031;28;20019;-69
2023/10/09 08:07:35;;;;;;;38.17;6.00;;;;;;;;;;4995287;28;20026;-70
2023/10/09 08:15:21;;;;;;;26.63;5.17;;;;;;;;;;4995174;28;20018;-70
2023/10/09 08:17:53;;;;;;;26.23;5.32;;;;;;;;;;4995048;28;20268;-70
2023/10/09 08:20:25;;;;;;;25.40;5.72;;;;;;;;;;4995035;28;20382;-70
2023/10/09 08:22:52;;;;;;;27.45;5.40;;;;;;;;;;4994930;28;20418;-69
2023/10/09 08:25:26;;;;;;;19.13;5.10;;;;;;;;;;4994667;28;20026;-70
2023/10/09 08:27:55;;;;;;;33.58;5.78;;;;;;;;;;4994692;28;20111;-70
2023/10/09 08:33:02;;;;;;;21.63;5.63;;;;;;;;;;4995044;28;20030;-70
2023/10/09 08:35:32;;;;;;;24.40;5.30;;;;;;;;;;4994738;28;20023;-70
2023/10/09 08:37:59;;;;;;;25.20;5.10;;;;;;;;;;4994719;28;20018;-70
2023/10/09 08:40:31;;;;;;;21.02;5.53;;;;;;;;;;4994684;28;20541;-70
2023/10/09 08:42:59;;;;;;;20.55;4.78;;;;;;;;;;4994258;28;20027;-70
2023/10/09 08:45:27;;;;;;;22.95;5.18;;;;;;;;;;4994365;28;20026;-70
2023/10/09 08:47:54;;;;;;;28.00;5.10;;;;;;;;;;4994374;28;20549;-70
2023/10/09 08:50:20;;;;;;;16.15;4.30;;;;;;;;;;4994535;28;20485;-69
2023/10/09 08:52:46;;;;;;;27.55;5.28;;;;;;;;;;4994413;28;20485;-70
2023/10/09 08:55:12;;;;;;;15.73;5.00;;;;;;;;;;4993371;28;20030;-70
2023/10/09 08:57:40;;;;;;;20.88;4.40;;;;;;;;;;4994124;28;20057;-70
2023/10/09 09:00:09;;;;;;;26.00;5.35;;;;;;;;;;4994387;28;20497;-70
2023/10/09 09:02:36;;;;;;;25.95;4.72;;;;;;;;;;4994359;28;20394;-70
2023/10/09 09:05:15;;;;;;;21.88;4.35;;;;;;;;;;4993941;28;20027;-70
2023/10/09 09:07:42;;;;;;;19.17;4.22;;;;;;;;;;4993928;28;20029;-70
2023/10/09 09:10:17;;;;;;;21.08;4.97;;;;;;;;;;4993997;28;20511;-69
2023/10/09 09:12:46;;;;;;;21.98;4.63;;;;;;;;;;4993975;28;20019;-70
2023/10/09 09:15:22;;;;;;;12.55;3.97;;;;;;;;;;4994199;28;20034;-70
2023/10/09 09:17:51;;;;;;;24.95;4.97;;;;;;;;;;4994172;28;20498;-70
2023/10/09 09:20:34;;;;;;;25.00;6.03;;;;;;;;;;4993864;28;20034;-70
2023/10/09 09:22:59;;;;;;;20.67;4.95;;;;;;;;;;4993762;28;20023;-70
2023/10/09 09:25:25;;;;;;;36.87;5.63;;;;;;;;;;4993786;28;20030;-70
2023/10/09 09:27:59;;;;;;;33.60;6.03;;;;;;;;;;4992538;28;20264;-70
2023/10/09 09:30:33;;;;;;;17.33;4.22;;;;;;;;;;4993728;28;20058;-69
2023/10/09 09:33:20;;;;;;;19.48;4.18;;;;;;;;;;4994040;28;20022;-70
2023/10/09 09:36:06;;;;;;;17.70;4.95;;;;;;;;;;4994009;28;20030;-70
2023/10/09 09:38:41;;;;;;;23.10;4.90;;;;;;;;;;4993721;28;20026;-70
2023/10/09 09:41:07;;;;;;;18.55;4.93;;;;;;;;;;4993979;28;20467;-70
2023/10/09 09:43:35;;;;;;;22.83;6.18;;;;;;;;;;4993631;28;20029;-66
2023/10/09 09:46:03;;;;;;;22.70;4.72;;;;;;;;;;4993912;28;20467;-66
2023/10/09 09:48:33;;;;;;;17.58;4.18;;;;;;;;;;4993866;28;20045;-66
2023/10/09 09:50:58;;;;;;;26.70;4.30;;;;;;;;;;4993714;28;20471;-66
2023/10/09 09:53:23;;;;;;;13.93;4.30;;;;;;;;;;4993882;28;20022;-66
2023/10/09 09:55:52;;;;;;;22.50;4.78;;;;;;;;;;4993738;28;20022;-66
2023/10/09 09:58:23;;;;;;;32.70;4.60;;;;;;;;;;4993545;28;20023;-66
2023/10/09 10:00:53;;;;;;;17.08;4.90;;;;;;;;;;4993817;28;20033;-66
2023/10/09 10:03:18;;;;;;;22.75;4.32;;;;;;;;;;4993473;28;20116;-66
2023/10/09 10:05:46;;;;;;;26.95;5.10;;;;;;;;;;4995581;28;20049;-66
2023/10/09 10:08:15;;;;;;;21.10;3.85;;;;;;;;;;4997491;28;20030;-66
2023/10/09 10:10:52;;;;;;;24.23;4.80;;;;;;;;;;4997054;28;20073;-66
2023/10/09 10:13:37;;;;;;;12.52;4.00;;;;;;;;;;4997096;28;20038;-66
2023/10/09 10:18:59;;;;;;;14.02;4.30;;;;;;;;;;4997337;28;20113;-66
2023/10/09 10:21:48;;;;;;;18.08;3.85;;;;;;;;;;4997211;28;20049;-66
2023/10/09 10:24:31;;;;;;;17.30;4.38;;;;;;;;;;4996705;28;20445;-66
2023/10/09 10:27:24;;;;;;;13.60;4.30;;;;;;;;;;4997153;28;20482;-66
2023/10/09 10:30:10;;;;;;;15.88;4.38;;;;;;;;;;4997151;28;20073;-66
2023/10/09 10:32:53;;;;;;;18.10;5.00;;;;;;;;;;4996665;28;20023;-66
2023/10/09 10:35:32;;;;;;;20.33;4.53;;;;;;;;;;4996985;28;20478;-66
2023/10/09 10:38:11;;;;;;;13.60;4.22;;;;;;;;;;4996949;28;20023;-66
2023/10/09 10:40:46;;;;;;;14.77;4.25;;;;;;;;;;4996857;28;20026;-66
2023/10/09 10:46:05;;;;;;;17.50;4.80;;;;;;;;;;4996600;28;20101;-66
2023/10/09 10:48:38;;;;;;;13.55;3.95;;;;;;;;;;4996740;28;20538;-66
2023/10/09 10:51:11;;;;;;;17.55;4.65;;;;;;;;;;4996463;28;20069;-66
2023/10/09 10:53:47;;;;;;;18.10;4.15;;;;;;;;;;4996443;28;20031;-70
2023/10/09 10:58:38;;;;;;;19.25;4.28;;;;;;;;;;4996565;28;20026;-70
2023/10/09 11:01:15;;;;;;;15.77;4.45;;;;;;;;;;4996356;28;20018;-70
2023/10/09 11:03:55;;;;;;;17.50;4.20;;;;;;;;;;4996129;28;20026;-70
2023/10/09 11:06:25;;;;;;;18.75;4.90;;;;;;;;;;4996478;28;20033;-70
2023/10/09 11:08:59;;;;;;;18.15;4.80;;;;;;;;;;4996091;28;20029;-70
2023/10/09 11:11:32;;;;;;;15.70;5.88;;;;;;;;;;4995898;28;20100;-70
2023/10/09 11:14:07;;;;;;;20.25;4.95;;;;;;;;;;4995953;28;20084;-70
2023/10/09 11:16:41;;;;;;;16.08;4.45;;;;;;;;;;4995275;28;20114;-70
2023/10/09 11:21:59;;;;;;;16.88;5.15;;;;;;;;;;4995654;28;20100;-70
2023/10/09 11:24:33;;;;;;;24.65;4.38;;;;;;;;;;4995819;28;20097;-70
2023/10/09 11:27:05;;;;;;;14.05;3.67;;;;;;;;;;4995829;28;20045;-70
2023/10/09 11:29:52;;;;;;;22.23;4.75;;;;;;;;;;4995991;28;20471;-71
2023/10/09 11:32:19;;;;;;;17.73;4.47;;;;;;;;;;4995548;28;20026;-71
2023/10/09 11:34:51;;;;;;;16.52;4.55;;;;;;;;;;4995548;28;20030;-70
2023/10/09 11:37:31;;;;;;;23.98;6.20;;;;;;;;;;4995571;28;20025;-70
2023/10/09 11:39:57;;;;;;;16.20;4.85;;;;;;;;;;4995779;28;20522;-70
2023/10/09 11:42:37;;;;;;;16.33;4.63;;;;;;;;;;4995562;28;20105;-70
2023/10/09 11:45:24;;;;;;;17.85;4.80;;;;;;;;;;4995607;28;20041;-70
2023/10/09 11:48:05;;;;;;;25.60;4.47;;;;;;;;;;4995395;28;20019;-70
2023/10/09 11:55:52;;;;;;;16.85;5.05;;;;;;;;;;4995512;28;20022;-70
2023/10/09 11:58:23;;;;;;;22.30;5.25;;;;;;;;;;4995470;28;20025;-70
2023/10/09 12:00:51;;;;;;;17.45;5.32;;;;;;;;;;4995178;28;20108;-70
2023/10/09 12:03:16;;;;;;;15.48;4.47;;;;;;;;;;4995415;28;20504;-66
2023/10/09 12:05:44;;;;;;;15.85;4.85;;;;;;;;;;4995339;28;20081;-66
2023/10/09 12:08:15;;;;;;;15.43;4.18;;;;;;;;;;4995290;28;20046;-66
2023/10/09 12:10:40;;;;;;;17.23;5.23;;;;;;;;;;4994862;28;20055;-66
2023/10/09 12:13:08;;;;;;;16.60;4.72;;;;;;;;;;4995143;28;20026;-66
2023/10/09 12:15:37;;;;;;;16.80;4.80;;;;;;;;;;4995072;28;20014;-66
2023/10/09 12:18:18;;;;;;;17.23;5.07;;;;;;;;;;4995122;28;20498;-66
2023/10/09 12:20:50;;;;;;;22.55;5.00;;;;;;;;;;4994773;28;20030;-66
2023/10/09 12:23:16;;;;;;;16.92;5.47;;;;;;;;;;4994912;28;20109;-66
2023/10/09 12:25:44;;;;;;;14.40;6.25;;;;;;;;;;4994722;28;20097;-66
2023/10/09 12:28:12;;;;;;;20.83;5.15;;;;;;;;;;4994594;28;20022;-66
2023/10/09 12:30:39;;;;;;;16.75;4.95;;;;;;;;;;4994840;28;20550;-66
2023/10/09 12:33:07;;;;;;;18.52;4.88;;;;;;;;;;4994522;28;20018;-66
2023/10/09 12:35:35;;;;;;;25.60;5.53;;;;;;;;;;4994725;28;20026;-66
2023/10/09 12:38:01;;;;;;;22.25;4.88;;;;;;;;;;4994527;28;20478;-66
2023/10/09 12:40:30;;;;;;;24.63;6.00;;;;;;;;;;4994689;28;20027;-66
2023/10/09 12:42:58;;;;;;;22.65;5.95;;;;;;;;;;4994624;28;20451;-66
2023/10/09 12:45:26;;;;;;;21.05;5.55;;;;;;;;;;4994619;28;20466;-66
2023/10/09 12:47:58;;;;;;;23.02;5.53;;;;;;;;;;4994415;28;20029;-66
2023/10/09 12:50:27;;;;;;;15.35;5.03;;;;;;;;;;4994489;28;20014;-66
2023/10/09 12:53:06;;;;;;;19.63;5.20;;;;;;;;;;4994500;28;20069;-66
2023/10/09 12:55:34;;;;;;;20.25;5.25;;;;;;;;;;4994120;28;20022;-66
2023/10/09 12:58:01;;;;;;;17.95;5.40;;;;;;;;;;4994216;28;20391;-66
2023/10/09 13:00:26;;;;;;;19.25;4.43;;;;;;;;;;4994399;28;20023;-66
2023/10/09 13:02:51;;;;;;;16.35;5.38;;;;;;;;;;4994156;28;20023;-66
2023/10/09 13:05:26;;;;;;;18.40;5.03;;;;;;;;;;4994275;28;20108;-66
2023/10/09 13:07:51;;;;;;;19.70;5.03;;;;;;;;;;4994303;28;20254;-66
2023/10/09 13:10:17;;;;;;;15.88;4.60;;;;;;;;;;4993847;28;20068;-66
2023/10/09 13:12:42;;;;;;;13.83;5.07;;;;;;;;;;4994071;28;20034;-66
2023/10/09 13:15:09;;;;;;;16.67;4.60;;;;;;;;;;4993966;28;20264;-66
2023/10/09 13:17:36;;;;;;;20.15;5.20;;;;;;;;;;4993874;28;20026;-66
2023/10/09 13:20:03;;;;;;;18.92;4.90;;;;;;;;;;4993832;28;20030;-66
2023/10/09 13:22:30;;;;;;;29.38;5.57;;;;;;;;;;4993948;28;20105;-66
2023/10/09 13:25:03;;;;;;;21.95;4.80;;;;;;;;;;4993780;28;20434;-66
2023/10/09 13:27:33;;;;;;;18.33;4.65;;;;;;;;;;4994087;28;20030;-66
2023/10/09 13:30:05;;;;;;;14.82;4.68;;;;;;;;;;4994075;28;20077;-66
2023/10/09 13:32:33;;;;;;;16.33;4.43;;;;;;;;;;4994089;28;20479;-66
2023/10/09 13:35:02;;;;;;;16.83;4.80;;;;;;;;;;4994057;28;20398;-66
2023/10/09 13:37:27;;;;;;;18.13;4.82;;;;;;;;;;4993982;28;20501;-66
2023/10/09 13:39:52;;;;;;;14.55;4.53;;;;;;;;;;4994264;28;20030;-66
2023/10/09 13:42:18;;;;;;;16.47;4.90;;;;;;;;;;4997721;28;20544;-66
2023/10/09 13:44:43;;;;;;;29.30;6.17;;;;;;;;;;4997855;28;20026;-66
2023/10/09 13:47:18;;;;;;;16.00;5.53;;;;;;;;;;4997933;28;20307;-66
2023/10/09 13:49:44;;;;;;;21.77;6.55;;;;;;;;;;4997871;28;20025;-66
2023/10/09 13:52:09;;;;;;;16.40;4.93;;;;;;;;;;4997561;28;20089;-66
2023/10/09 13:57:00;;;;;;;13.50;4.90;;;;;;;;;;4997833;28;20243;-66
2023/10/09 13:59:25;;;;;;;19.85;5.75;;;;;;;;;;4997653;28;20251;-66
2023/10/09 14:01:51;;;;;;;23.35;5.20;;;;;;;;;;4997453;28;20069;-66
2023/10/09 14:04:19;;;;;;;12.70;4.80;;;;;;;;;;4997203;28;20030;-66
2023/10/09 14:06:44;;;;;;;18.92;5.68;;;;;;;;;;4997325;28;20527;-66
2023/10/09 14:09:11;;;;;;;21.90;5.22;;;;;;;;;;4997095;28;20027;-67
2023/10/09 14:11:39;;;;;;;13.68;4.72;;;;;;;;;;4997459;28;20037;-66
2023/10/09 14:14:09;;;;;;;14.90;5.07;;;;;;;;;;4997171;28;20046;-66
2023/10/09 14:16:35;;;;;;;11.20;5.45;;;;;;;;;;4997368;28;20099;-66
2023/10/09 14:19:01;;;;;;;15.82;5.32;;;;;;;;;;4997295;28;20510;-66
2023/10/09 14:21:30;;;;;;;17.35;5.47;;;;;;;;;;4997129;28;20493;-70
2023/10/09 14:23:58;;;;;;;13.50;5.18;;;;;;;;;;4996837;28;20109;-70
2023/10/09 14:26:27;;;;;;;14.13;5.32;;;;;;;;;;4996994;28;20391;-70
2023/10/09 14:28:53;;;;;;;23.05;5.60;;;;;;;;;;4997150;28;20132;-70
2023/10/09 14:31:26;;;;;;;21.98;6.07;;;;;;;;;;4996806;28;20022;-70
2023/10/09 14:33:52;;;;;;;20.30;5.68;;;;;;;;;;4997069;28;20433;-70
2023/10/09 14:36:18;;;;;;;15.35;5.57;;;;;;;;;;4996985;28;20101;-70
2023/10/09 14:38:46;;;;;;;12.48;5.05;;;;;;;;;;4996926;28;20073;-70
2023/10/09 14:41:12;;;;;;;11.73;5.50;;;;;;;;;;4996027;28;20033;-70
2023/10/09 14:43:37;;;;;;;15.52;5.20;;;;;;;;;;4995413;28;20034;-70
2023/10/09 14:46:04;;;;;;;18.05;5.05;;;;;;;;;;4996226;28;20109;-70
2023/10/09 14:48:36;;;;;;;19.13;5.13;;;;;;;;;;4996314;28;20030;-70
2023/10/09 14:51:04;;;;;;;18.10;6.32;;;;;;;;;;4996021;28;20010;-70
2023/10/09 14:53:30;;;;;;;18.88;5.68;;;;;;;;;;4991148;28;20033;-70
2023/10/09 14:55:55;;;;;;;17.55;5.75;;;;;;;;;;4976655;28;20027;-71
2023/10/09 14:58:23;;;;;;;16.95;4.55;;;;;;;;;;4976106;28;20463;-70
2023/10/09 15:00:48;;;;;;;15.38;5.68;;;;;;;;;;4976260;28;20030;-70
2023/10/09 15:03:14;;;;;;;13.00;5.67;;;;;;;;;;4975977;28;20490;-70
2023/10/09 15:05:41;;;;;;;12.32;5.57;;;;;;;;;;4976120;28;20292;-70
2023/10/09 15:08:10;;;;;;;18.08;6.05;;;;;;;;;;4976345;28;20535;-70
2023/10/09 15:10:36;;;;;;;15.23;5.47;;;;;;;;;;4974096;28;20053;-70
2023/10/09 15:13:01;;;;;;;16.95;5.70;;;;;;;;;;4976193;28;20114;-70
2023/10/09 15:15:30;;;;;;;16.02;5.22;;;;;;;;;;4976189;28;20102;-71
2023/10/09 15:17:56;;;;;;;17.88;4.72;;;;;;;;;;4976304;28;20027;-70
2023/10/09 15:20:21;;;;;;;14.87;5.23;;;;;;;;;;4976122;28;20386;-70
2023/10/09 15:22:47;;;;;;;15.50;5.27;;;;;;;;;;4976187;28;20026;-70
2023/10/09 15:25:14;;;;;;;26.13;5.68;;;;;;;;;;4975318;28;20340;-70
2023/10/09 15:27:40;;;;;;;16.40;5.35;;;;;;;;;;4975890;28;20031;-70
2023/10/09 15:30:06;;;;;;;19.95;4.85;;;;;;;;;;4975811;28;20027;-70
2023/10/09 15:32:34;;;;;;;20.02;5.53;;;;;;;;;;4976310;28;20023;-66
2023/10/09 15:35:02;;;;;;;16.42;5.00;;;;;;;;;;4976031;28;20027;-66
2023/10/09 15:37:27;;;;;;;21.33;5.50;;;;;;;;;;4975740;28;20029;-66
2023/10/09 15:39:52;;;;;;;13.70;4.80;;;;;;;;;;4974951;28;20031;-66
2023/10/09 15:42:18;;;;;;;19.10;5.45;;;;;;;;;;4976058;28;20253;-66
2023/10/09 15:44:47;;;;;;;14.90;4.83;;;;;;;;;;4975490;28;20031;-66
2023/10/09 15:47:15;;;;;;;17.35;5.90;;;;;;;;;;4980008;28;20014;-66
2023/10/09 15:49:43;;;;;;;13.20;5.20;;;;;;;;;;4994428;28;20093;-66
2023/10/09 15:52:09;;;;;;;9.75;4.13;;;;;;;;;;4994948;28;20020;-66
2023/10/09 15:54:34;;;;;;;12.27;5.07;;;;;;;;;;4994365;28;20366;-66
2023/10/09 15:56:59;;;;;;;13.48;5.18;;;;;;;;;;4995104;28;20029;-69
2023/10/09 15:59:24;;;;;;;15.93;5.23;;;;;;;;;;4994742;28;20113;-69
2023/10/09 16:01:51;;;;;;;19.70;5.40;;;;;;;;;;4994668;28;20105;-69
2023/10/09 16:04:16;;;;;;;14.57;5.00;;;;;;;;;;4994142;28;20026;-69
2023/10/09 16:06:42;;;;;;;15.15;5.28;;;;;;;;;;4994621;28;20467;-69
2023/10/09 16:09:15;;;;;;;21.70;5.87;;;;;;;;;;4992464;28;20073;-69
2023/10/09 16:11:47;;;;;;;24.38;5.25;;;;;;;;;;4994211;28;20264;-69
2023/10/09 16:14:15;;;;;;;18.27;5.53;;;;;;;;;;4994336;28;20027;-69
2023/10/09 16:16:45;;;;;;;14.60;4.68;;;;;;;;;;4993913;28;20015;-69
2023/10/09 16:19:10;;;;;;;17.65;5.55;;;;;;;;;;4993434;28;20038;-70
2023/10/09 16:21:36;;;;;;;21.45;5.38;;;;;;;;;;4993834;28;20048;-69
2023/10/09 16:24:01;;;;;;;18.35;5.38;;;;;;;;;;4993152;28;20030;-69
2023/10/09 16:26:28;;;;;;;21.98;5.78;;;;;;;;;;4993960;28;20462;-74
2023/10/09 16:28:53;;;;;;;19.48;5.30;;;;;;;;;;4993676;28;20101;-73
2023/10/09 16:31:18;;;;;;;13.95;5.10;;;;;;;;;;4992668;28;20165;-73
2023/10/09 16:33:50;;;;;;;22.92;5.22;;;;;;;;;;4992268;28;20033;-74
2023/10/09 16:36:15;;;;;;;14.75;5.35;;;;;;;;;;4993863;28;20022;-74
2023/10/09 16:38:41;;;;;;;17.17;5.60;;;;;;;;;;4991583;28;20372;-73
2023/10/09 16:41:10;;;;;;;19.65;5.75;;;;;;;;;;4993873;28;20054;-73
2023/10/09 16:43:37;;;;;;;12.50;5.30;;;;;;;;;;4993560;28;20478;-74
2023/10/09 16:46:08;;;;;;;27.23;5.50;;;;;;;;;;4992026;28;20085;-75
2023/10/09 16:48:33;;;;;;;17.42;5.38;;;;;;;;;;4992152;28;20021;-75
2023/10/09 16:50:58;;;;;;;24.92;4.95;;;;;;;;;;4992619;28;20434;-74
2023/10/09 16:53:24;;;;;;;25.73;5.18;;;;;;;;;;4992933;28;20014;-74